sensor_id;sensor_type;location;lat;lon;timestamp;pressure;altitude;pressure_sealevel;temperature;humidity
10064;BME280;5071;52.360;13.134;2023-05-09T00:01:25;101899.19;;;9.15;66.20
10064;BME280;5071;52.360;13.134;2023-05-09T00:06:28;101900.00;;;9.09;66.46
10064;BME280;5071;52.360;13.134;2023-05-09T00:11:31;101907.84;;;9.00;67.04
10064;BME280;5071;52.360;13.134;2023-05-09T00:16:33;101899.78;;;8.92;67.11
10064;BME280;5071;52.360;13.134;2023-05-09T00:21:36;101895.25;;;8.84;67.53
10064;BME280;5071;52.360;13.134;2023-05-09T00:26:39;101914.59;;;8.78;67.71
10064;BME280;5071;52.360;13.134;2023-05-09T00:31:40;101905.69;;;8.71;68.25
10064;BME280;5071;52.360;13.134;2023-05-09T00:36:44;101907.34;;;8.62;68.25
10064;BME280;5071;52.360;13.134;2023-05-09T00:41:46;101901.97;;;8.59;68.45
10064;BME280;5071;52.360;13.134;2023-05-09T00:46:48;101887.75;;;8.52;68.66
10064;BME280;5071;52.360;13.134;2023-05-09T00:51:53;101886.00;;;8.51;68.40
10064;BME280;5071;52.360;13.134;2023-05-09T00:56:55;101888.56;;;8.46;68.65
10064;BME280;5071;52.360;13.134;2023-05-09T01:01:57;101875.50;;;8.57;67.89
10064;BME280;5071;52.360;13.134;2023-05-09T01:07:05;101869.19;;;8.47;68.18
10064;BME280;5071;52.360;13.134;2023-05-09T01:12:15;101870.09;;;8.49;67.70
10064;BME280;5071;52.360;13.134;2023-05-09T01:17:26;101871.06;;;8.54;67.11
10064;BME280;5071;52.360;13.134;2023-05-09T01:22:33;101865.69;;;8.50;67.13
10064;BME280;5071;52.360;13.134;2023-05-09T01:27:41;101856.06;;;8.55;66.61
10064;BME280;5071;52.360;13.134;2023-05-09T01:32:53;101856.09;;;8.56;66.10
10064;BME280;5071;52.360;13.134;2023-05-09T01:37:57;101856.91;;;8.52;66.02
10064;BME280;5071;52.360;13.134;2023-05-09T01:43:02;101855.06;;;8.48;65.89
10064;BME280;5071;52.360;13.134;2023-05-09T01:48:08;101861.19;;;8.44;65.75
10064;BME280;5071;52.360;13.134;2023-05-09T01:53:12;101859.66;;;8.60;64.90
10064;BME280;5071;52.360;13.134;2023-05-09T01:58:17;101847.25;;;8.54;64.40
10064;BME280;5071;52.360;13.134;2023-05-09T02:03:22;101846.22;;;8.46;64.68
10064;BME280;5071;52.360;13.134;2023-05-09T02:08:25;101853.34;;;8.52;64.25
10064;BME280;5071;52.360;13.134;2023-05-09T02:13:28;101854.16;;;8.45;64.30
10064;BME280;5071;52.360;13.134;2023-05-09T02:18:31;101853.09;;;8.35;64.22
10064;BME280;5071;52.360;13.134;2023-05-09T02:23:34;101854.72;;;8.27;64.61
10064;BME280;5071;52.360;13.134;2023-05-09T02:28:37;101855.59;;;8.26;64.22
10064;BME280;5071;52.360;13.134;2023-05-09T02:33:41;101858.13;;;8.16;64.58
10064;BME280;5071;52.360;13.134;2023-05-09T02:38:45;101842.13;;;8.10;65.55
10064;BME280;5071;52.360;13.134;2023-05-09T02:43:47;101837.63;;;8.02;65.04
10064;BME280;5071;52.360;13.134;2023-05-09T02:48:50;101851.53;;;7.91;65.79
10064;BME280;5071;52.360;13.134;2023-05-09T02:53:53;101844.31;;;7.83;65.94
10064;BME280;5071;52.360;13.134;2023-05-09T02:58:55;101841.50;;;7.70;66.79
10064;BME280;5071;52.360;13.134;2023-05-09T03:03:58;101841.31;;;7.59;66.60
10064;BME280;5071;52.360;13.134;2023-05-09T03:09:00;101839.28;;;7.45;66.80
10064;BME280;5071;52.360;13.134;2023-05-09T03:14:02;101827.66;;;7.35;67.88
10064;BME280;5071;52.360;13.134;2023-05-09T03:19:06;101828.47;;;7.31;67.68
10064;BME280;5071;52.360;13.134;2023-05-09T03:24:09;101833.72;;;7.29;67.27
10064;BME280;5071;52.360;13.134;2023-05-09T03:29:11;101829.00;;;7.13;68.46
10064;BME280;5071;52.360;13.134;2023-05-09T03:34:14;101829.84;;;7.10;68.91
10064;BME280;5071;52.360;13.134;2023-05-09T03:39:16;101826.13;;;7.00;69.36
10064;BME280;5071;52.360;13.134;2023-05-09T03:44:19;101815.47;;;6.96;69.37
10064;BME280;5071;52.360;13.134;2023-05-09T03:49:22;101822.38;;;6.89;69.69
10064;BME280;5071;52.360;13.134;2023-05-09T03:54:25;101816.38;;;6.98;69.08
10064;BME280;5071;52.360;13.134;2023-05-09T03:59:27;101813.78;;;6.99;69.38
10064;BME280;5071;52.360;13.134;2023-05-09T04:04:30;101812.97;;;7.04;69.01
10064;BME280;5071;52.360;13.134;2023-05-09T04:09:33;101813.13;;;7.10;68.94
10064;BME280;5071;52.360;13.134;2023-05-09T04:14:35;101822.06;;;7.18;68.39
10064;BME280;5071;52.360;13.134;2023-05-09T04:19:38;101824.03;;;7.28;68.51
10064;BME280;5071;52.360;13.134;2023-05-09T04:24:40;101818.06;;;7.40;67.81
10064;BME280;5071;52.360;13.134;2023-05-09T04:29:43;101821.03;;;7.60;67.26
10064;BME280;5071;52.360;13.134;2023-05-09T04:34:46;101820.41;;;8.31;65.15
10064;BME280;5071;52.360;13.134;2023-05-09T04:39:48;101820.31;;;9.80;60.02
10064;BME280;5071;52.360;13.134;2023-05-09T04:44:50;101820.03;;;10.64;57.09
10064;BME280;5071;52.360;13.134;2023-05-09T04:49:53;101814.97;;;11.87;54.00
10064;BME280;5071;52.360;13.134;2023-05-09T04:54:55;101812.28;;;12.27;51.60
10064;BME280;5071;52.360;13.134;2023-05-09T04:59:58;101817.69;;;11.99;52.40
10064;BME280;5071;52.360;13.134;2023-05-09T05:05:01;101809.66;;;12.18;52.06
10064;BME280;5071;52.360;13.134;2023-05-09T05:10:13;101813.06;;;12.66;51.18
10064;BME280;5071;52.360;13.134;2023-05-09T05:15:15;101813.06;;;12.64;50.46
10064;BME280;5071;52.360;13.134;2023-05-09T05:20:19;101807.63;;;12.94;50.65
10064;BME280;5071;52.360;13.134;2023-05-09T05:25:20;101791.50;;;13.15;49.66
10064;BME280;5071;52.360;13.134;2023-05-09T05:30:22;101778.09;;;14.28;47.63
10064;BME280;5071;52.360;13.134;2023-05-09T05:35:26;101779.81;;;13.43;48.45
10064;BME280;5071;52.360;13.134;2023-05-09T05:40:28;101775.69;;;12.88;49.97
10064;BME280;5071;52.360;13.134;2023-05-09T05:45:30;101776.78;;;13.84;48.07
10064;BME280;5071;52.360;13.134;2023-05-09T05:50:34;101766.78;;;14.84;46.67
10064;BME280;5071;52.360;13.134;2023-05-09T05:55:36;101762.84;;;14.39;47.02
10064;BME280;5071;52.360;13.134;2023-05-09T06:00:38;101758.50;;;14.32;46.36
10064;BME280;5071;52.360;13.134;2023-05-09T06:05:42;101750.31;;;14.45;47.19
10064;BME280;5071;52.360;13.134;2023-05-09T06:10:46;101749.16;;;15.29;44.21
10064;BME280;5071;52.360;13.134;2023-05-09T06:15:48;101739.53;;;14.52;46.36
10064;BME280;5071;52.360;13.134;2023-05-09T06:20:51;101732.47;;;15.16;44.59
10064;BME280;5071;52.360;13.134;2023-05-09T06:25:53;101729.28;;;15.47;45.04
10064;BME280;5071;52.360;13.134;2023-05-09T06:30:55;101715.66;;;15.05;44.93
10064;BME280;5071;52.360;13.134;2023-05-09T06:35:59;101714.97;;;16.00;43.54
10064;BME280;5071;52.360;13.134;2023-05-09T06:41:01;101715.31;;;16.68;42.02
10064;BME280;5071;52.360;13.134;2023-05-09T06:46:03;101704.25;;;17.93;39.55
10064;BME280;5071;52.360;13.134;2023-05-09T06:51:07;101706.91;;;16.46;41.64
10064;BME280;5071;52.360;13.134;2023-05-09T06:56:10;101695.59;;;17.12;40.70
10064;BME280;5071;52.360;13.134;2023-05-09T07:01:12;101685.38;;;16.07;43.13
10064;BME280;5071;52.360;13.134;2023-05-09T07:06:16;101672.06;;;16.46;42.69
10064;BME280;5071;52.360;13.134;2023-05-09T07:11:18;101670.94;;;16.96;41.22
10064;BME280;5071;52.360;13.134;2023-05-09T07:16:20;101681.16;;;15.96;42.64
10064;BME280;5071;52.360;13.134;2023-05-09T07:21:23;101676.09;;;16.64;42.19
10064;BME280;5071;52.360;13.134;2023-05-09T07:26:25;101680.47;;;16.68;41.81
10064;BME280;5071;52.360;13.134;2023-05-09T07:31:27;101665.34;;;16.25;41.92
10064;BME280;5071;52.360;13.134;2023-05-09T07:36:31;101670.34;;;16.81;41.49
10064;BME280;5071;52.360;13.134;2023-05-09T07:41:36;101659.16;;;17.72;39.95
10064;BME280;5071;52.360;13.134;2023-05-09T07:46:37;101658.66;;;18.53;39.07
10064;BME280;5071;52.360;13.134;2023-05-09T07:51:41;101657.00;;;17.86;39.84
10064;BME280;5071;52.360;13.134;2023-05-09T07:56:43;101647.72;;;18.57;38.66
10064;BME280;5071;52.360;13.134;2023-05-09T08:01:45;101630.94;;;18.51;38.53
10064;BME280;5071;52.360;13.134;2023-05-09T08:06:48;101630.25;;;19.00;38.06
10064;BME280;5071;52.360;13.134;2023-05-09T08:11:51;101626.81;;;19.49;36.85
10064;BME280;5071;52.360;13.134;2023-05-09T08:16:52;101626.63;;;19.01;36.45
10064;BME280;5071;52.360;13.134;2023-05-09T08:21:56;101616.22;;;18.91;37.46
10064;BME280;5071;52.360;13.134;2023-05-09T08:26:58;101609.53;;;19.29;36.78
10064;BME280;5071;52.360;13.134;2023-05-09T08:32:00;101610.59;;;19.23;35.52
10064;BME280;5071;52.360;13.134;2023-05-09T08:37:04;101598.75;;;19.29;35.64
10064;BME280;5071;52.360;13.134;2023-05-09T08:42:08;101592.09;;;20.13;34.84
10064;BME280;5071;52.360;13.134;2023-05-09T08:47:10;101593.38;;;21.15;33.21
10064;BME280;5071;52.360;13.134;2023-05-09T08:52:15;101599.47;;;21.82;31.61
10064;BME280;5071;52.360;13.134;2023-05-09T08:57:17;101584.59;;;21.92;29.62
10064;BME280;5071;52.360;13.134;2023-05-09T09:02:20;101573.59;;;21.57;28.85
10064;BME280;5071;52.360;13.134;2023-05-09T09:07:24;101570.19;;;21.31;29.62
10064;BME280;5071;52.360;13.134;2023-05-09T09:12:31;101560.72;;;21.62;29.58
10064;BME280;5071;52.360;13.134;2023-05-09T09:17:36;101568.06;;;23.44;28.57
10064;BME280;5071;52.360;13.134;2023-05-09T09:22:42;101560.13;;;24.08;27.00
10064;BME280;5071;52.360;13.134;2023-05-09T09:27:48;101562.28;;;22.26;29.38
10064;BME280;5071;52.360;13.134;2023-05-09T09:32:50;101548.59;;;24.98;27.32
10064;BME280;5071;52.360;13.134;2023-05-09T09:37:57;101549.75;;;24.94;26.26
10064;BME280;5071;52.360;13.134;2023-05-09T09:43:01;101543.44;;;24.31;26.61
10064;BME280;5071;52.360;13.134;2023-05-09T09:48:07;101530.91;;;23.63;26.69
10064;BME280;5071;52.360;13.134;2023-05-09T09:53:10;101536.69;;;25.00;25.19
10064;BME280;5071;52.360;13.134;2023-05-09T09:58:16;101520.84;;;25.23;25.70
10064;BME280;5071;52.360;13.134;2023-05-09T10:03:19;101506.47;;;23.81;26.93
10064;BME280;5071;52.360;13.134;2023-05-09T10:08:22;101497.31;;;25.22;24.59
10064;BME280;5071;52.360;13.134;2023-05-09T10:13:24;101503.38;;;23.38;27.23
10064;BME280;5071;52.360;13.134;2023-05-09T10:18:28;101492.41;;;23.90;26.13
10064;BME280;5071;52.360;13.134;2023-05-09T10:23:36;101485.50;;;24.78;24.23
10064;BME280;5071;52.360;13.134;2023-05-09T10:28:41;101482.34;;;25.00;26.07
10064;BME280;5071;52.360;13.134;2023-05-09T10:33:47;101471.53;;;24.84;25.50
10064;BME280;5071;52.360;13.134;2023-05-09T10:38:53;101468.81;;;24.70;25.22
10064;BME280;5071;52.360;13.134;2023-05-09T10:43:57;101462.44;;;21.65;28.64
10064;BME280;5071;52.360;13.134;2023-05-09T10:48:59;101459.97;;;21.98;29.13
10064;BME280;5071;52.360;13.134;2023-05-09T10:54:12;101440.25;;;22.32;27.29
10064;BME280;5071;52.360;13.134;2023-05-09T10:59:37;101424.47;;;21.49;28.74
10064;BME280;5071;52.360;13.134;2023-05-09T11:04:41;101420.22;;;20.20;30.79
10064;BME280;5071;52.360;13.134;2023-05-09T11:09:50;101405.66;;;20.24;30.62
10064;BME280;5071;52.360;13.134;2023-05-09T11:14:52;101414.00;;;21.60;29.81
10064;BME280;5071;52.360;13.134;2023-05-09T11:20:03;101393.78;;;21.31;30.95
10064;BME280;5071;52.360;13.134;2023-05-09T11:25:09;101385.94;;;20.85;30.71
10064;BME280;5071;52.360;13.134;2023-05-09T11:30:14;101372.22;;;21.10;31.24
10064;BME280;5071;52.360;13.134;2023-05-09T11:35:17;101362.50;;;20.87;31.19
10064;BME280;5071;52.360;13.134;2023-05-09T11:40:22;101351.94;;;20.19;32.22
10064;BME280;5071;52.360;13.134;2023-05-09T11:45:26;101346.72;;;20.37;29.77
10064;BME280;5071;52.360;13.134;2023-05-09T11:50:29;101324.25;;;20.77;30.56
10064;BME280;5071;52.360;13.134;2023-05-09T11:55:36;101326.16;;;20.94;30.58
10064;BME280;5071;52.360;13.134;2023-05-09T12:00:43;101301.09;;;21.30;30.49
10064;BME280;5071;52.360;13.134;2023-05-09T12:05:46;101306.50;;;21.30;30.53
10064;BME280;5071;52.360;13.134;2023-05-09T12:10:50;101292.81;;;21.33;30.58
10064;BME280;5071;52.360;13.134;2023-05-09T12:15:59;101294.13;;;20.27;30.92
10064;BME280;5071;52.360;13.134;2023-05-09T12:21:01;101271.19;;;20.97;29.61
10064;BME280;5071;52.360;13.134;2023-05-09T12:26:05;101280.63;;;21.98;29.96
10064;BME280;5071;52.360;13.134;2023-05-09T12:31:08;101269.41;;;20.77;30.02
10064;BME280;5071;52.360;13.134;2023-05-09T12:36:11;101270.72;;;21.25;28.88
10064;BME280;5071;52.360;13.134;2023-05-09T12:41:16;101282.31;;;21.27;29.84
10064;BME280;5071;52.360;13.134;2023-05-09T12:46:37;101263.56;;;20.67;29.48
10064;BME280;5071;52.360;13.134;2023-05-09T12:51:47;101267.22;;;20.85;30.14
10064;BME280;5071;52.360;13.134;2023-05-09T12:56:50;101251.91;;;21.05;29.65
10064;BME280;5071;52.360;13.134;2023-05-09T13:01:55;101223.84;;;21.26;30.97
10064;BME280;5071;52.360;13.134;2023-05-09T13:06:57;101234.63;;;21.09;30.05
10064;BME280;5071;52.360;13.134;2023-05-09T13:12:01;101214.75;;;21.65;29.00
10064;BME280;5071;52.360;13.134;2023-05-09T13:17:04;101200.84;;;21.55;30.48
10064;BME280;5071;52.360;13.134;2023-05-09T13:22:06;101201.53;;;21.23;30.84
10064;BME280;5071;52.360;13.134;2023-05-09T13:27:11;101187.34;;;21.36;30.39
10064;BME280;5071;52.360;13.134;2023-05-09T13:32:14;101178.81;;;21.63;30.91
10064;BME280;5071;52.360;13.134;2023-05-09T13:37:17;101172.09;;;22.23;30.06
10064;BME280;5071;52.360;13.134;2023-05-09T13:42:20;101159.75;;;21.84;29.58
10064;BME280;5071;52.360;13.134;2023-05-09T13:47:23;101154.94;;;21.36;30.90
10064;BME280;5071;52.360;13.134;2023-05-09T13:52:25;101138.63;;;21.57;30.57
10064;BME280;5071;52.360;13.134;2023-05-09T13:57:28;101123.88;;;21.28;30.06
10064;BME280;5071;52.360;13.134;2023-05-09T14:02:30;101126.66;;;21.79;29.31
10064;BME280;5071;52.360;13.134;2023-05-09T14:07:32;101112.66;;;21.88;29.65
10064;BME280;5071;52.360;13.134;2023-05-09T14:12:36;101109.84;;;22.40;28.46
10064;BME280;5071;52.360;13.134;2023-05-09T14:17:38;101112.84;;;21.85;30.52
10064;BME280;5071;52.360;13.134;2023-05-09T14:22:40;101106.78;;;21.97;29.50
10064;BME280;5071;52.360;13.134;2023-05-09T14:27:44;101089.38;;;22.19;28.52
10064;BME280;5071;52.360;13.134;2023-05-09T14:32:46;101092.28;;;22.31;29.29
10064;BME280;5071;52.360;13.134;2023-05-09T14:37:48;101063.25;;;22.35;30.72
10064;BME280;5071;52.360;13.134;2023-05-09T14:42:52;101059.03;;;22.13;29.15
10064;BME280;5071;52.360;13.134;2023-05-09T14:47:54;101060.66;;;22.34;30.09
10064;BME280;5071;52.360;13.134;2023-05-09T14:52:56;101045.94;;;22.06;29.69
10064;BME280;5071;52.360;13.134;2023-05-09T14:57:59;101045.50;;;22.13;30.62
10064;BME280;5071;52.360;13.134;2023-05-09T15:03:02;101054.69;;;22.27;30.86
10064;BME280;5071;52.360;13.134;2023-05-09T15:08:04;101037.00;;;21.88;30.47
10064;BME280;5071;52.360;13.134;2023-05-09T15:13:07;101032.63;;;21.85;31.41
10064;BME280;5071;52.360;13.134;2023-05-09T15:18:09;101022.84;;;21.83;29.87
10064;BME280;5071;52.360;13.134;2023-05-09T15:23:12;101017.28;;;21.86;30.79
10064;BME280;5071;52.360;13.134;2023-05-09T15:28:15;101008.59;;;21.97;30.58
10064;BME280;5071;52.360;13.134;2023-05-09T15:33:18;101011.63;;;22.70;30.45
10064;BME280;5071;52.360;13.134;2023-05-09T15:38:19;101012.94;;;21.99;30.69
10064;BME280;5071;52.360;13.134;2023-05-09T15:43:23;101009.13;;;22.35;29.75
10064;BME280;5071;52.360;13.134;2023-05-09T15:48:25;101015.38;;;21.88;30.59
10064;BME280;5071;52.360;13.134;2023-05-09T15:53:27;101003.63;;;21.55;31.63
10064;BME280;5071;52.360;13.134;2023-05-09T15:58:30;101004.22;;;21.94;30.83
10064;BME280;5071;52.360;13.134;2023-05-09T16:03:33;101000.88;;;21.73;31.15
10064;BME280;5071;52.360;13.134;2023-05-09T16:08:35;100981.78;;;21.43;31.88
10064;BME280;5071;52.360;13.134;2023-05-09T16:13:39;100977.59;;;21.70;31.42
10064;BME280;5071;52.360;13.134;2023-05-09T16:18:41;100972.84;;;21.76;31.64
10064;BME280;5071;52.360;13.134;2023-05-09T16:23:43;100975.78;;;21.20;32.83
10064;BME280;5071;52.360;13.134;2023-05-09T16:28:46;100967.72;;;21.03;33.65
10064;BME280;5071;52.360;13.134;2023-05-09T16:33:49;100951.22;;;21.42;32.51
10064;BME280;5071;52.360;13.134;2023-05-09T16:38:50;100956.28;;;20.80;33.94
10064;BME280;5071;52.360;13.134;2023-05-09T16:43:54;100949.22;;;20.95;33.84
10064;BME280;5071;52.360;13.134;2023-05-09T16:48:56;100951.03;;;20.77;33.80
10064;BME280;5071;52.360;13.134;2023-05-09T16:53:58;100950.88;;;20.97;33.34
10064;BME280;5071;52.360;13.134;2023-05-09T16:59:02;100936.91;;;21.07;34.00
10064;BME280;5071;52.360;13.134;2023-05-09T17:04:04;100933.03;;;20.95;34.61
10064;BME280;5071;52.360;13.134;2023-05-09T17:09:06;100930.50;;;20.74;34.97
10064;BME280;5071;52.360;13.134;2023-05-09T17:14:09;100923.22;;;20.40;35.54
10064;BME280;5071;52.360;13.134;2023-05-09T17:19:11;100924.91;;;20.06;36.32
10064;BME280;5071;52.360;13.134;2023-05-09T17:24:13;100914.94;;;19.89;36.70
10064;BME280;5071;52.360;13.134;2023-05-09T17:29:17;100905.63;;;19.58;37.06
10064;BME280;5071;52.360;13.134;2023-05-09T17:34:19;100886.03;;;19.17;37.68
10064;BME280;5071;52.360;13.134;2023-05-09T17:39:22;100889.00;;;19.11;38.49
10064;BME280;5071;52.360;13.134;2023-05-09T17:44:25;100891.22;;;18.80;39.00
10064;BME280;5071;52.360;13.134;2023-05-09T17:49:27;100891.13;;;18.61;39.94
10064;BME280;5071;52.360;13.134;2023-05-09T17:54:29;100895.44;;;18.45;40.25
10064;BME280;5071;52.360;13.134;2023-05-09T17:59:33;100892.72;;;18.24;41.00
10064;BME280;5071;52.360;13.134;2023-05-09T18:04:35;100884.72;;;18.01;41.50
10064;BME280;5071;52.360;13.134;2023-05-09T18:09:37;100889.19;;;17.78;41.63
10064;BME280;5071;52.360;13.134;2023-05-09T18:14:40;100874.31;;;17.47;42.80
10064;BME280;5071;52.360;13.134;2023-05-09T18:19:42;100872.50;;;17.24;43.50
10064;BME280;5071;52.360;13.134;2023-05-09T18:24:45;100879.09;;;17.16;43.43
10064;BME280;5071;52.360;13.134;2023-05-09T18:29:48;100879.13;;;16.90;43.78
10064;BME280;5071;52.360;13.134;2023-05-09T18:34:50;100881.22;;;16.82;44.41
10064;BME280;5071;52.360;13.134;2023-05-09T18:39:53;100877.00;;;16.74;44.27
10064;BME280;5071;52.360;13.134;2023-05-09T18:44:56;100886.63;;;16.54;44.81
10064;BME280;5071;52.360;13.134;2023-05-09T18:49:59;100883.66;;;16.37;45.88
10064;BME280;5071;52.360;13.134;2023-05-09T18:55:04;100884.06;;;16.24;45.76
10064;BME280;5071;52.360;13.134;2023-05-09T19:00:09;100880.97;;;16.10;45.79
10064;BME280;5071;52.360;13.134;2023-05-09T19:05:12;100881.34;;;15.99;46.40
10064;BME280;5071;52.360;13.134;2023-05-09T19:10:14;100884.75;;;15.76;46.86
10064;BME280;5071;52.360;13.134;2023-05-09T19:15:19;100885.13;;;15.64;47.21
10064;BME280;5071;52.360;13.134;2023-05-09T19:20:21;100871.97;;;15.56;46.64
10064;BME280;5071;52.360;13.134;2023-05-09T19:25:24;100866.84;;;15.48;46.06
10064;BME280;5071;52.360;13.134;2023-05-09T19:30:29;100872.38;;;15.42;46.60
10064;BME280;5071;52.360;13.134;2023-05-09T19:35:32;100868.00;;;15.40;46.01
10064;BME280;5071;52.360;13.134;2023-05-09T19:40:34;100862.84;;;15.33;46.00
10064;BME280;5071;52.360;13.134;2023-05-09T19:45:39;100860.22;;;15.32;46.00
10064;BME280;5071;52.360;13.134;2023-05-09T19:50:41;100863.16;;;15.23;46.16
10064;BME280;5071;52.360;13.134;2023-05-09T19:55:44;100861.75;;;15.11;46.43
10064;BME280;5071;52.360;13.134;2023-05-09T20:00:48;100857.34;;;15.08;46.36
10064;BME280;5071;52.360;13.134;2023-05-09T20:05:51;100860.38;;;14.96;46.70
10064;BME280;5071;52.360;13.134;2023-05-09T20:10:53;100847.97;;;14.93;47.02
10064;BME280;5071;52.360;13.134;2023-05-09T20:15:58;100837.69;;;14.80;46.99
10064;BME280;5071;52.360;13.134;2023-05-09T20:21:02;100839.81;;;14.67;47.50
10064;BME280;5071;52.360;13.134;2023-05-09T20:26:04;100827.50;;;14.61;47.74
10064;BME280;5071;52.360;13.134;2023-05-09T20:31:08;100826.88;;;14.50;48.17
10064;BME280;5071;52.360;13.134;2023-05-09T20:36:11;100820.81;;;14.43;48.48
10064;BME280;5071;52.360;13.134;2023-05-09T20:41:14;100815.72;;;14.34;48.79
10064;BME280;5071;52.360;13.134;2023-05-09T20:46:18;100810.66;;;14.25;48.91
10064;BME280;5071;52.360;13.134;2023-05-09T20:51:20;100804.34;;;14.27;49.11
10064;BME280;5071;52.360;13.134;2023-05-09T20:56:22;100801.09;;;14.16;49.54
10064;BME280;5071;52.360;13.134;2023-05-09T21:01:25;100804.03;;;14.05;50.24
10064;BME280;5071;52.360;13.134;2023-05-09T21:06:27;100795.25;;;14.00;50.19
10064;BME280;5071;52.360;13.134;2023-05-09T21:11:29;100790.91;;;13.96;50.42
10064;BME280;5071;52.360;13.134;2023-05-09T21:16:32;100789.44;;;13.84;50.81
10064;BME280;5071;52.360;13.134;2023-05-09T21:21:34;100785.22;;;13.75;51.39
10064;BME280;5071;52.360;13.134;2023-05-09T21:26:36;100776.47;;;13.70;51.77
10064;BME280;5071;52.360;13.134;2023-05-09T21:31:39;100782.97;;;13.58;51.95
10064;BME280;5071;52.360;13.134;2023-05-09T21:36:42;100783.13;;;13.52;52.46
10064;BME280;5071;52.360;13.134;2023-05-09T21:41:44;100777.94;;;13.46;52.97
10064;BME280;5071;52.360;13.134;2023-05-09T21:46:47;100774.50;;;13.41;53.26
10064;BME280;5071;52.360;13.134;2023-05-09T21:51:49;100780.03;;;13.32;53.57
10064;BME280;5071;52.360;13.134;2023-05-09T21:56:51;100773.16;;;13.21;54.15
10064;BME280;5071;52.360;13.134;2023-05-09T22:01:55;100776.84;;;13.14;54.56
10064;BME280;5071;52.360;13.134;2023-05-09T22:06:57;100774.38;;;13.07;55.00
10064;BME280;5071;52.360;13.134;2023-05-09T22:11:59;100769.97;;;13.04;55.18
10064;BME280;5071;52.360;13.134;2023-05-09T22:17:03;100768.47;;;12.91;55.58
10064;BME280;5071;52.360;13.134;2023-05-09T22:22:05;100767.75;;;12.84;56.06
10064;BME280;5071;52.360;13.134;2023-05-09T22:27:07;100768.13;;;12.66;57.00
10064;BME280;5071;52.360;13.134;2023-05-09T22:32:11;100772.78;;;12.56;57.34
10064;BME280;5071;52.360;13.134;2023-05-09T22:37:13;100760.50;;;12.47;57.74
10064;BME280;5071;52.360;13.134;2023-05-09T22:42:16;100758.00;;;12.39;58.30
10064;BME280;5071;52.360;13.134;2023-05-09T22:47:19;100749.31;;;12.30;58.55
10064;BME280;5071;52.360;13.134;2023-05-09T22:52:21;100747.69;;;12.22;59.19
10064;BME280;5071;52.360;13.134;2023-05-09T22:57:23;100741.41;;;12.25;58.99
10064;BME280;5071;52.360;13.134;2023-05-09T23:02:27;100737.97;;;12.20;59.27
10064;BME280;5071;52.360;13.134;2023-05-09T23:07:30;100739.84;;;12.15;59.37
10064;BME280;5071;52.360;13.134;2023-05-09T23:12:32;100729.25;;;12.12;59.47
10064;BME280;5071;52.360;13.134;2023-05-09T23:17:36;100726.88;;;11.96;60.18
10064;BME280;5071;52.360;13.134;2023-05-09T23:22:38;100732.34;;;11.87;60.73
10064;BME280;5071;52.360;13.134;2023-05-09T23:27:40;100727.13;;;11.82;61.14
10064;BME280;5071;52.360;13.134;2023-05-09T23:32:44;100712.91;;;11.83;60.96
10064;BME280;5071;52.360;13.134;2023-05-09T23:37:45;100715.72;;;11.73;61.36
10064;BME280;5071;52.360;13.134;2023-05-09T23:42:47;100716.69;;;11.68;61.76
10064;BME280;5071;52.360;13.134;2023-05-09T23:47:51;100703.38;;;11.72;61.53
10064;BME280;5071;52.360;13.134;2023-05-09T23:52:53;100707.03;;;11.64;62.19
10064;BME280;5071;52.360;13.134;2023-05-09T23:57:55;100700.09;;;11.54;62.36
